createdAt,value
2017-08-24T00:02:15.846Z,13.00
2017-08-24T00:04:42.439Z,8.27
2017-08-24T00:07:09.017Z,10.70
2017-08-24T00:09:35.589Z,9.30
2017-08-24T00:12:02.313Z,8.93
2017-08-24T00:14:28.888Z,8.90
2017-08-24T00:16:55.544Z,9.97
2017-08-24T00:19:22.460Z,7.70
2017-08-24T00:21:49.028Z,7.97
2017-08-24T00:24:15.604Z,13.53
2017-08-24T00:26:42.333Z,11.33
2017-08-24T00:29:08.907Z,8.90
2017-08-24T00:31:35.484Z,8.27
2017-08-24T00:34:02.228Z,12.70
2017-08-24T00:36:28.799Z,10.10
2017-08-24T00:38:55.376Z,10.37
2017-08-24T00:41:22.104Z,10.60
2017-08-24T00:43:48.682Z,11.57
2017-08-24T00:46:15.252Z,9.30
2017-08-24T00:48:41.853Z,12.10
2017-08-24T00:51:08.420Z,9.20
2017-08-24T00:53:34.994Z,8.70
2017-08-24T00:56:01.725Z,13.17
2017-08-24T00:58:28.301Z,9.27
2017-08-24T01:00:54.864Z,9.73
2017-08-24T01:03:21.563Z,13.73
2017-08-24T01:05:48.130Z,9.20
2017-08-24T01:08:14.705Z,12.20
2017-08-24T01:10:41.399Z,11.10
2017-08-24T01:13:07.986Z,11.20
2017-08-24T01:15:34.560Z,9.80
2017-08-24T01:18:01.253Z,8.13
2017-08-24T01:20:27.825Z,8.80
2017-08-24T01:22:54.398Z,11.17
2017-08-24T01:25:21.133Z,8.20
2017-08-24T01:27:47.705Z,12.50
2017-08-24T01:30:14.282Z,10.03
2017-08-24T01:32:41.012Z,9.60
2017-08-24T01:35:07.584Z,16.10
2017-08-24T01:37:34.173Z,15.90
2017-08-24T01:40:00.768Z,16.93
2017-08-24T01:42:27.339Z,15.80
2017-08-24T01:44:53.908Z,13.83
2017-08-24T01:47:20.905Z,14.47
2017-08-24T01:49:47.560Z,13.40
2017-08-24T01:52:14.134Z,13.43
2017-08-24T01:54:40.821Z,9.13
2017-08-24T01:57:07.388Z,9.83
2017-08-24T01:59:33.965Z,10.43
2017-08-24T02:02:00.548Z,10.97
2017-08-24T02:04:27.244Z,11.43
2017-08-24T02:06:53.824Z,10.70
2017-08-24T02:09:20.429Z,9.77
2017-08-24T02:11:47.008Z,14.33
2017-08-24T02:14:13.581Z,11.77
2017-08-24T02:16:40.199Z,11.23
2017-08-24T02:19:06.772Z,11.20
2017-08-24T02:21:33.396Z,14.40
2017-08-24T02:24:00.409Z,13.00
2017-08-24T02:26:26.969Z,14.00
2017-08-24T02:28:53.546Z,11.27
2017-08-24T02:31:20.224Z,9.60
2017-08-24T02:33:46.805Z,10.50
2017-08-24T02:36:13.380Z,12.70
2017-08-24T02:38:40.119Z,11.73
2017-08-24T02:41:06.716Z,11.57
2017-08-24T02:43:33.311Z,8.63
2017-08-24T02:46:00.224Z,11.93
2017-08-24T02:48:26.801Z,13.73
2017-08-24T02:50:53.375Z,10.37
2017-08-24T02:53:19.964Z,7.10
2017-08-24T02:55:46.545Z,10.03
2017-08-24T02:58:13.118Z,7.27
2017-08-24T03:00:40.046Z,7.53
2017-08-24T03:03:06.654Z,9.47
2017-08-24T03:05:33.212Z,11.47
2017-08-24T03:07:59.899Z,10.80
2017-08-24T03:10:26.468Z,9.90
2017-08-24T03:12:53.043Z,10.87
2017-08-24T03:15:19.776Z,8.80
2017-08-24T03:17:46.339Z,8.10
2017-08-24T03:20:12.908Z,8.23
2017-08-24T03:22:39.504Z,11.63
2017-08-24T03:25:06.100Z,17.37
2017-08-24T03:27:32.676Z,7.70
2017-08-24T03:29:59.408Z,12.30
2017-08-24T03:32:25.985Z,9.07
2017-08-24T03:34:52.556Z,9.53
2017-08-24T03:37:19.184Z,9.30
2017-08-24T03:39:45.785Z,11.97
2017-08-24T03:42:12.360Z,9.87
2017-08-24T03:44:39.074Z,12.57
2017-08-24T03:47:05.676Z,10.30
2017-08-24T03:49:32.228Z,10.00
2017-08-24T03:51:58.827Z,12.13
2017-08-24T03:54:25.410Z,11.47
2017-08-24T03:56:51.989Z,12.60
2017-08-24T03:59:18.712Z,9.87
2017-08-24T04:01:45.288Z,11.27
2017-08-24T04:04:11.860Z,10.60
2017-08-24T04:06:38.593Z,14.37
2017-08-24T04:09:05.181Z,16.03
2017-08-24T04:11:31.757Z,27.03
2017-08-24T04:13:58.531Z,23.67
2017-08-24T04:16:25.125Z,20.40
2017-08-24T04:18:51.704Z,24.40
2017-08-24T04:21:18.302Z,21.10
2017-08-24T04:23:44.885Z,26.27
2017-08-24T04:26:11.465Z,29.63
2017-08-24T04:28:38.068Z,20.43
2017-08-24T04:31:04.757Z,21.03
2017-08-24T04:33:31.384Z,17.40
2017-08-24T04:35:58.077Z,23.67
2017-08-24T04:38:24.655Z,15.97
2017-08-24T04:40:51.233Z,18.53
2017-08-24T04:43:17.920Z,22.47
2017-08-24T04:45:44.508Z,16.67
2017-08-24T04:48:11.149Z,15.90
2017-08-24T04:50:37.884Z,14.40
2017-08-24T04:53:04.464Z,26.00
2017-08-24T04:55:31.044Z,14.87
2017-08-24T04:57:57.790Z,15.70
2017-08-24T05:00:24.352Z,15.93
2017-08-24T05:02:50.926Z,14.03
2017-08-24T05:05:17.516Z,15.60
2017-08-24T05:07:44.092Z,16.30
2017-08-24T05:10:10.668Z,14.33
2017-08-24T05:12:37.291Z,23.50
2017-08-24T05:15:03.868Z,16.53
2017-08-24T05:17:37.336Z,15.27
2017-08-24T05:20:03.920Z,15.00
2017-08-24T05:22:30.514Z,12.43
2017-08-24T05:24:57.248Z,13.80
2017-08-24T05:27:23.823Z,17.27
2017-08-24T05:29:50.400Z,18.43
2017-08-24T05:32:17.026Z,16.13
2017-08-24T05:34:43.608Z,15.00
2017-08-24T05:37:10.229Z,18.27
2017-08-24T05:39:37.148Z,14.07
2017-08-24T05:42:03.732Z,15.83
2017-08-24T05:44:30.300Z,13.10
2017-08-24T05:46:56.983Z,15.30
2017-08-24T05:49:23.555Z,12.90
2017-08-24T05:51:50.136Z,11.83
2017-08-24T05:54:17.096Z,17.23
2017-08-24T05:56:43.681Z,19.13
2017-08-24T05:59:10.259Z,14.70
2017-08-24T06:01:37.770Z,16.03
2017-08-24T06:04:04.352Z,16.33
2017-08-24T06:06:30.933Z,14.07
2017-08-24T06:08:57.660Z,15.00
2017-08-24T06:11:24.247Z,15.00
2017-08-24T06:13:50.824Z,18.43
2017-08-24T06:16:17.428Z,16.17
2017-08-24T06:18:44.000Z,17.07
2017-08-24T06:21:10.576Z,14.90
2017-08-24T06:23:37.205Z,17.43
2017-08-24T06:26:03.777Z,19.40
2017-08-24T06:28:30.389Z,19.00
2017-08-24T06:30:56.973Z,23.60
2017-08-24T06:33:23.563Z,17.33
2017-08-24T06:35:50.157Z,19.30
2017-08-24T06:38:16.727Z,16.30
2017-08-24T06:40:43.305Z,16.17
2017-08-24T06:43:09.888Z,15.17
2017-08-24T06:45:37.272Z,14.33
2017-08-24T06:48:04.008Z,16.70
2017-08-24T06:50:30.589Z,25.30
2017-08-24T06:52:57.167Z,22.53
2017-08-24T06:55:24.109Z,19.80
2017-08-24T06:57:50.697Z,17.27
2017-08-24T07:00:17.272Z,18.67
2017-08-24T07:02:44.001Z,25.60
2017-08-24T07:05:10.582Z,26.67
2017-08-24T07:07:37.168Z,19.17
2017-08-24T07:10:03.858Z,24.80
2017-08-24T07:12:30.438Z,26.30
2017-08-24T07:14:57.067Z,23.03
2017-08-24T07:17:23.693Z,20.93
2017-08-24T07:19:50.276Z,24.60
2017-08-24T07:22:16.857Z,23.63
2017-08-24T07:24:43.444Z,18.80
2017-08-24T07:27:10.024Z,18.30
2017-08-24T07:29:36.602Z,17.73
2017-08-24T07:32:03.298Z,23.30
2017-08-24T07:34:29.872Z,16.93
2017-08-24T07:36:56.445Z,18.83
2017-08-24T07:39:23.168Z,20.00
2017-08-24T07:41:49.741Z,17.50
2017-08-24T07:44:16.319Z,17.53
2017-08-24T07:46:43.041Z,17.73
2017-08-24T07:49:09.625Z,22.00
2017-08-24T07:51:36.200Z,14.73
2017-08-24T07:54:02.824Z,14.07
2017-08-24T07:56:29.412Z,18.73
2017-08-24T07:58:55.990Z,12.57
2017-08-24T08:01:22.577Z,15.70
2017-08-24T08:03:49.156Z,19.87
2017-08-24T08:06:16.352Z,21.70
2017-08-24T08:08:43.356Z,14.40
2017-08-24T08:11:09.964Z,19.40
2017-08-24T08:13:36.540Z,13.20
2017-08-24T08:16:03.221Z,15.27
2017-08-24T08:18:29.801Z,15.93
2017-08-24T08:20:56.376Z,20.80
2017-08-24T08:23:23.166Z,18.47
2017-08-24T08:25:49.740Z,9.70
2017-08-24T08:28:16.357Z,19.20
2017-08-24T08:30:43.008Z,13.47
2017-08-24T08:33:09.628Z,15.50
2017-08-24T08:35:36.202Z,15.67
2017-08-24T08:38:02.873Z,13.50
2017-08-24T08:40:29.452Z,13.57
2017-08-24T08:42:56.028Z,13.20
2017-08-24T08:45:22.932Z,15.37
2017-08-24T08:47:49.513Z,9.00
2017-08-24T08:50:16.120Z,13.23
2017-08-24T08:52:43.076Z,11.43
2017-08-24T08:55:09.655Z,11.70
2017-08-24T08:57:36.228Z,10.13
2017-08-24T09:00:02.855Z,15.80
2017-08-24T09:02:29.423Z,8.03
2017-08-24T09:04:55.996Z,11.27
2017-08-24T09:07:22.590Z,7.07
2017-08-24T09:09:49.160Z,12.20
2017-08-24T09:12:15.730Z,7.60
2017-08-24T09:14:42.663Z,6.87
2017-08-24T09:17:09.236Z,8.80
2017-08-24T09:19:35.867Z,8.97
2017-08-24T09:22:02.718Z,12.10
2017-08-24T09:24:29.301Z,6.23
2017-08-24T09:26:55.887Z,7.83
2017-08-24T09:29:22.556Z,8.03
2017-08-24T09:31:49.134Z,14.27
2017-08-24T09:34:15.721Z,12.43
2017-08-24T09:36:42.336Z,8.87
2017-08-24T09:39:08.912Z,8.00
2017-08-24T09:41:35.494Z,11.40
2017-08-24T09:44:02.107Z,10.10
2017-08-24T09:46:28.668Z,9.60
2017-08-24T09:48:55.249Z,12.50
2017-08-24T09:51:21.980Z,10.27
2017-08-24T09:53:48.559Z,11.83
2017-08-24T09:56:15.130Z,10.67
2017-08-24T09:58:41.808Z,11.77
2017-08-24T10:01:08.389Z,12.43
2017-08-24T10:03:34.975Z,8.70
2017-08-24T10:06:01.576Z,11.93
2017-08-24T10:08:28.169Z,11.50
2017-08-24T10:10:54.744Z,19.73
2017-08-24T10:13:21.333Z,10.63
2017-08-24T10:15:47.908Z,9.00
2017-08-24T10:18:14.489Z,14.37
2017-08-24T10:20:41.237Z,10.03
2017-08-24T10:23:07.817Z,12.30
2017-08-24T10:25:34.393Z,8.60
2017-08-24T10:28:01.116Z,7.57
2017-08-24T10:30:27.717Z,7.63
2017-08-24T10:32:54.269Z,9.70
2017-08-24T10:35:20.873Z,9.07
2017-08-24T10:37:47.476Z,6.87
2017-08-24T10:40:14.072Z,9.33
2017-08-24T10:42:41.119Z,11.10
2017-08-24T10:45:07.785Z,11.57
2017-08-24T10:47:34.352Z,7.20
2017-08-24T10:50:01.076Z,10.13
2017-08-24T10:52:28.049Z,8.63
2017-08-24T10:54:54.752Z,7.70
2017-08-24T10:57:21.348Z,7.50
2017-08-24T10:59:47.910Z,9.80
2017-08-24T11:02:14.497Z,11.07
2017-08-24T11:04:41.108Z,6.50
2017-08-24T11:07:07.676Z,6.27
2017-08-24T11:09:34.248Z,6.03
2017-08-24T11:12:01.175Z,8.50
2017-08-24T11:14:27.776Z,8.57
2017-08-24T11:16:54.364Z,7.30
2017-08-24T11:19:21.108Z,12.17
2017-08-24T11:21:47.689Z,9.83
2017-08-24T11:24:14.300Z,9.10
2017-08-24T11:26:41.033Z,10.20
2017-08-24T11:29:07.687Z,10.83
2017-08-24T11:31:34.245Z,8.07
2017-08-24T11:34:00.845Z,9.07
2017-08-24T11:36:27.429Z,8.97
2017-08-24T11:38:54.000Z,9.33
2017-08-24T11:41:20.724Z,7.57
2017-08-24T11:43:47.300Z,6.70
2017-08-24T11:46:13.906Z,5.67
2017-08-24T11:48:40.633Z,7.77
2017-08-24T11:51:07.418Z,6.57
2017-08-24T11:53:34.079Z,10.10
2017-08-24T11:56:00.757Z,6.83
2017-08-24T11:58:27.337Z,5.93
2017-08-24T12:00:53.908Z,9.00
2017-08-24T12:03:20.525Z,8.47
2017-08-24T12:05:47.100Z,13.77
2017-08-24T12:08:13.736Z,8.07
2017-08-24T12:10:40.649Z,5.33
2017-08-24T12:13:07.402Z,6.00
2017-08-24T12:15:34.009Z,6.60
2017-08-24T12:18:00.736Z,9.00
2017-08-24T12:20:27.313Z,9.33
2017-08-24T12:22:53.880Z,7.37
2017-08-24T12:25:20.519Z,10.33
2017-08-24T12:27:47.095Z,5.00
2017-08-24T12:30:13.663Z,8.40
2017-08-24T12:32:41.211Z,5.17
2017-08-24T12:35:07.922Z,8.93
2017-08-24T12:37:34.547Z,8.80
2017-08-24T12:40:01.272Z,6.37
2017-08-24T12:42:27.875Z,7.53
2017-08-24T12:44:54.444Z,6.00
2017-08-24T12:47:21.048Z,7.47
2017-08-24T12:49:47.630Z,12.73
2017-08-24T12:52:14.200Z,12.80
2017-08-24T12:54:41.428Z,5.30
2017-08-24T12:57:08.110Z,5.93
2017-08-24T12:59:34.677Z,5.93
2017-08-24T13:02:01.412Z,10.17
2017-08-24T13:04:27.994Z,5.70
2017-08-24T13:06:54.710Z,7.20
2017-08-24T13:09:21.678Z,5.60
2017-08-24T13:11:48.307Z,9.10
2017-08-24T13:14:15.074Z,7.53
2017-08-24T13:16:41.774Z,11.60
2017-08-24T13:19:08.534Z,8.13
2017-08-24T13:21:35.128Z,7.17
2017-08-24T13:24:02.189Z,9.37
2017-08-24T13:26:29.689Z,10.73
2017-08-24T13:28:56.282Z,8.10
2017-08-24T13:31:23.002Z,8.90
2017-08-24T13:33:49.577Z,7.53
2017-08-24T13:36:16.144Z,8.13
2017-08-24T13:38:43.066Z,6.17
2017-08-24T13:41:09.710Z,9.90
2017-08-24T13:43:36.303Z,7.50
2017-08-24T13:46:03.013Z,8.43
2017-08-24T13:48:29.617Z,9.00
2017-08-24T13:50:56.184Z,6.57
2017-08-24T13:53:22.780Z,9.07
2017-08-24T13:55:49.485Z,10.17
2017-08-24T13:58:16.060Z,8.73
2017-08-24T14:00:42.673Z,11.97
2017-08-24T14:03:09.253Z,8.00
2017-08-24T14:05:35.832Z,8.57
2017-08-24T14:08:02.439Z,9.33
2017-08-24T14:10:29.016Z,7.67
2017-08-24T14:12:55.584Z,7.47
2017-08-24T14:15:22.276Z,12.63
2017-08-24T14:17:48.851Z,8.43
2017-08-24T14:20:15.428Z,13.80
2017-08-24T14:22:42.158Z,6.60
2017-08-24T14:25:08.733Z,15.27
2017-08-24T14:27:35.309Z,7.30
2017-08-24T14:30:01.985Z,8.00
2017-08-24T14:32:28.572Z,10.63
2017-08-24T14:34:55.266Z,7.70
2017-08-24T14:37:21.992Z,8.83
2017-08-24T14:39:48.561Z,7.50
2017-08-24T14:42:15.128Z,4.30
2017-08-24T14:44:41.743Z,7.13
2017-08-24T14:47:08.320Z,6.10
2017-08-24T14:49:34.880Z,5.40
2017-08-24T14:52:01.612Z,7.00
2017-08-24T14:54:28.229Z,4.97
2017-08-24T14:56:54.840Z,4.50
2017-08-24T14:59:21.459Z,6.03
2017-08-24T15:01:48.035Z,6.40
2017-08-24T15:04:14.600Z,5.40
2017-08-24T15:06:41.592Z,4.93
2017-08-24T15:09:08.168Z,7.30
2017-08-24T15:11:34.764Z,6.50
2017-08-24T15:14:01.374Z,4.13
2017-08-24T15:16:27.944Z,7.63
2017-08-24T15:18:54.509Z,4.80
2017-08-24T15:21:21.423Z,7.40
2017-08-24T15:23:47.998Z,5.93
2017-08-24T15:26:14.753Z,7.10
2017-08-24T15:28:42.031Z,6.20
2017-08-24T15:31:08.634Z,5.13
2017-08-24T15:33:35.228Z,5.63
2017-08-24T15:36:01.956Z,6.50
2017-08-24T15:38:28.537Z,4.73
2017-08-24T15:40:55.100Z,8.93
2017-08-24T15:43:21.706Z,10.10
2017-08-24T15:45:48.278Z,5.90
2017-08-24T15:48:14.846Z,6.50
2017-08-24T15:50:41.465Z,4.90
2017-08-24T15:53:08.036Z,7.43
2017-08-24T15:55:34.616Z,7.07
2017-08-24T15:58:01.349Z,6.00
2017-08-24T16:00:27.920Z,4.73
2017-08-24T16:02:54.501Z,11.27
2017-08-24T16:05:21.211Z,6.10
2017-08-24T16:07:47.779Z,7.47
2017-08-24T16:10:14.348Z,6.77
2017-08-24T16:12:41.311Z,5.00
2017-08-24T16:15:07.930Z,6.70
2017-08-24T16:17:34.506Z,9.90
2017-08-24T16:20:01.495Z,19.77
2017-08-24T16:22:28.063Z,7.40
2017-08-24T16:24:54.635Z,6.33
2017-08-24T16:27:21.228Z,7.63
2017-08-24T16:29:47.796Z,7.73
2017-08-24T16:34:58.658Z,6.50
2017-08-24T16:37:25.245Z,15.03
2017-08-24T16:39:51.825Z,8.03
2017-08-24T16:42:18.411Z,5.70
2017-08-24T16:44:44.991Z,6.60
2017-08-24T16:47:11.678Z,6.60
2017-08-24T16:49:38.265Z,5.20
2017-08-24T16:52:04.837Z,4.73
2017-08-24T16:54:31.433Z,10.97
2017-08-24T16:56:58.112Z,5.97
2017-08-24T16:59:24.786Z,7.63
2017-08-24T17:01:51.377Z,9.50
2017-08-24T17:04:17.966Z,12.60
2017-08-24T17:06:44.563Z,6.13
2017-08-24T17:09:11.149Z,7.83
2017-08-24T17:11:37.878Z,12.57
2017-08-24T17:16:48.402Z,9.70
2017-08-24T17:19:14.993Z,9.33
2017-08-24T17:21:41.570Z,7.30
2017-08-24T17:24:08.260Z,9.27
2017-08-24T17:26:34.811Z,9.07
2017-08-24T17:29:01.386Z,7.70
2017-08-24T17:31:27.972Z,10.90
2017-08-24T17:33:54.563Z,7.40
2017-08-24T17:36:21.136Z,11.63
2017-08-24T17:38:47.721Z,9.20
2017-08-24T17:41:14.316Z,10.13
2017-08-24T17:43:40.904Z,5.07
2017-08-24T17:46:07.485Z,7.37
2017-08-24T17:48:34.060Z,6.03
2017-08-24T17:51:00.641Z,10.13
2017-08-24T17:53:27.210Z,9.63
2017-08-24T17:55:53.805Z,6.50
2017-08-24T17:58:20.436Z,5.70
2017-08-24T18:00:47.016Z,7.13
2017-08-24T18:03:13.648Z,14.47
2017-08-24T18:05:40.319Z,11.07
2017-08-24T18:08:06.916Z,10.40
2017-08-24T18:10:33.488Z,7.30
2017-08-24T18:13:00.076Z,11.90
2017-08-24T18:15:26.651Z,6.00
2017-08-24T18:17:53.224Z,9.40
2017-08-24T18:20:20.344Z,7.97
2017-08-24T18:22:46.926Z,10.20
2017-08-24T18:25:13.507Z,10.23
2017-08-24T18:27:40.343Z,12.50
2017-08-24T18:30:07.038Z,8.73
2017-08-24T18:32:33.650Z,8.30
2017-08-24T18:35:00.223Z,9.40
2017-08-24T18:37:26.836Z,8.93
2017-08-24T18:39:53.400Z,6.90
2017-08-24T18:42:19.978Z,6.60
2017-08-24T18:44:46.560Z,8.70
2017-08-24T18:47:13.133Z,7.77
2017-08-24T18:49:39.704Z,9.00
2017-08-24T18:52:06.297Z,6.90
2017-08-24T18:54:32.868Z,6.50
2017-08-24T18:56:59.458Z,6.53
2017-08-24T18:59:26.029Z,6.27
2017-08-24T19:01:52.597Z,9.93
2017-08-24T19:04:19.213Z,9.23
2017-08-24T19:06:45.774Z,9.00
2017-08-24T19:09:12.364Z,9.23
2017-08-24T19:11:38.947Z,8.43
2017-08-24T19:14:05.512Z,7.67
2017-08-24T19:16:32.100Z,8.53
2017-08-24T19:18:58.676Z,11.80
2017-08-24T19:21:25.250Z,7.10
2017-08-24T19:23:51.836Z,10.97
2017-08-24T19:26:18.410Z,8.43
2017-08-24T19:28:44.989Z,10.93
2017-08-24T19:31:11.650Z,12.13
2017-08-24T19:33:38.227Z,15.60
2017-08-24T19:36:04.812Z,10.63
2017-08-24T19:38:31.384Z,10.63
2017-08-24T19:40:58.004Z,10.90
2017-08-24T19:43:24.655Z,7.60
2017-08-24T19:45:51.257Z,7.80
2017-08-24T19:48:17.971Z,5.53
2017-08-24T19:50:44.517Z,7.13
2017-08-24T19:53:11.088Z,9.80
2017-08-24T19:55:37.672Z,8.43
2017-08-24T19:58:04.281Z,9.07
2017-08-24T20:00:30.882Z,7.13
2017-08-24T20:02:57.489Z,10.63
2017-08-24T20:05:24.094Z,12.53
2017-08-24T20:07:50.714Z,5.80
2017-08-24T20:10:17.285Z,8.07
2017-08-24T20:12:43.872Z,9.17
2017-08-24T20:15:10.441Z,6.63
2017-08-24T20:17:37.023Z,9.90
2017-08-24T20:20:03.629Z,8.47
2017-08-24T20:22:30.180Z,11.37
2017-08-24T20:24:56.772Z,8.83
2017-08-24T20:27:23.348Z,8.60
2017-08-24T20:29:49.924Z,9.20
2017-08-24T20:32:16.510Z,8.60
2017-08-24T20:34:43.080Z,9.27
2017-08-24T20:37:09.674Z,9.30
2017-08-24T20:39:36.291Z,12.47
2017-08-24T20:42:02.856Z,7.93
2017-08-24T20:44:29.445Z,16.50
2017-08-24T20:46:56.024Z,10.53
2017-08-24T20:49:22.608Z,10.17
2017-08-24T20:51:49.269Z,14.53
2017-08-24T20:54:15.889Z,8.00
2017-08-24T20:56:42.477Z,12.17
2017-08-24T20:59:09.051Z,8.13
2017-08-24T21:01:35.636Z,8.60
2017-08-24T21:04:02.220Z,9.90
2017-08-24T21:06:28.793Z,9.20
2017-08-24T21:08:55.380Z,10.50
2017-08-24T21:11:21.960Z,11.90
2017-08-24T21:13:48.599Z,9.47
2017-08-24T21:16:15.252Z,11.60
2017-08-24T21:18:41.842Z,12.10
2017-08-24T21:21:08.428Z,9.17
2017-08-24T21:23:35.005Z,15.13
2017-08-24T21:26:01.696Z,10.97
2017-08-24T21:28:28.282Z,7.83
2017-08-24T21:30:54.882Z,8.13
2017-08-24T21:33:21.476Z,10.10
2017-08-24T21:35:48.049Z,7.57
2017-08-24T21:38:14.642Z,11.50
2017-08-24T21:40:41.214Z,9.70
2017-08-24T21:43:07.789Z,10.47
2017-08-24T21:45:34.381Z,9.50
2017-08-24T21:48:00.952Z,7.90
2017-08-24T21:50:27.544Z,10.53
2017-08-24T21:52:54.137Z,11.60
2017-08-24T21:55:20.717Z,15.17
2017-08-24T21:57:47.285Z,8.13
2017-08-24T22:00:13.879Z,16.13
2017-08-24T22:02:40.457Z,8.13
2017-08-24T22:05:07.037Z,11.50
2017-08-24T22:07:33.678Z,12.90
2017-08-24T22:10:00.237Z,11.20
2017-08-24T22:12:26.820Z,9.13
2017-08-24T22:14:53.556Z,11.90
2017-08-24T22:17:20.131Z,13.10
2017-08-24T22:19:46.705Z,10.30
2017-08-24T22:22:13.307Z,11.40
2017-08-24T22:24:39.879Z,10.50
2017-08-24T22:27:06.546Z,8.30
2017-08-24T22:29:33.141Z,9.37
2017-08-24T22:31:59.716Z,9.13
2017-08-24T22:34:26.295Z,12.37
2017-08-24T22:36:52.880Z,8.37
2017-08-24T22:39:19.458Z,11.53
2017-08-24T22:41:46.029Z,8.73
2017-08-24T22:44:12.668Z,10.30
2017-08-24T22:46:39.245Z,9.03
2017-08-24T22:49:05.824Z,14.60
2017-08-24T22:51:32.421Z,11.50
2017-08-24T22:54:04.767Z,9.23
2017-08-24T22:56:37.105Z,7.20
2017-08-24T22:59:09.443Z,13.03
2017-08-24T23:01:41.840Z,11.83
2017-08-24T23:04:08.420Z,10.17
2017-08-24T23:06:35.001Z,10.93
2017-08-24T23:09:01.592Z,12.63
2017-08-24T23:11:28.253Z,13.63
2017-08-24T23:13:54.834Z,10.77
2017-08-24T23:16:21.427Z,14.33
2017-08-24T23:18:48.013Z,10.43
2017-08-24T23:21:14.594Z,9.57
2017-08-24T23:23:41.206Z,7.83
2017-08-24T23:26:07.779Z,10.93
2017-08-24T23:28:34.361Z,13.20
2017-08-24T23:31:01.057Z,12.30
2017-08-24T23:33:27.624Z,9.93
2017-08-24T23:35:55.054Z,13.53
2017-08-24T23:38:21.637Z,14.90
2017-08-24T23:40:48.209Z,8.10
2017-08-24T23:43:14.775Z,9.90
2017-08-24T23:45:41.518Z,8.90
2017-08-24T23:48:08.098Z,8.57
2017-08-24T23:50:34.695Z,9.33
2017-08-24T23:53:01.300Z,10.87
2017-08-24T23:55:27.884Z,13.27
2017-08-24T23:57:54.468Z,11.50
